This demonstration page uses our WeatherBlox Daily Observations layout. Learn more.

38.89511, -77.03637

Hourly Observations for August 9, 2015

Temp ( °F °C ) Dew Point ( °F °C ) Humidity (%) Winds ( mph kmh ) Pressure ( in mb ) Visibility ( mi km ) Precip ( " mm )
12:52 am 00:52 Partly Cloudy 75 24 63 17 65 65 S 7 11 30 1016 10 16.09344 0 0
1:52 am 01:52 Mostly Cloudy 73 23 63 17 69 69 S 6 9 30 1016 10 16.09344 0 0
2:52 am 02:52 Mostly Cloudy 73 23 63 17 69 69 Calm 30 1016 10 16.09344 0 0
3:52 am 03:52 Mostly Cloudy 73 23 63 17 69 69 SSW 3 6 30 1016 10 16.09344 0 0
4:52 am 04:52 Cloudy 73 23 64 18 74 74 Calm 30 1016 10 16.09344 0 0
5:52 am 05:52 Mostly Cloudy 73 23 64 18 74 74 Calm 30 1016 10 16.09344 0 0
6:52 am 06:52 Mostly Cloudy 73 23 63 17 69 69 Calm 30 1016 10 16.09344 0 0
7:52 am 07:52 Mostly Cloudy 75 24 64 18 69 69 S 5 7 30 1016 10 16.09344 0 0
8:52 am 08:52 Mostly Cloudy 77 25 63 17 61 61 SSW 5 7 30.03 1017 10 16.09344 0 0
9:52 am 09:52 Mostly Cloudy 79 26 63 17 58 58 SSE 5 7 30.03 1017 10 16.09344 0 0
10:52 am 10:52 Mostly Cloudy 82 28 63 17 51 51 S 9 15 30.03 1017 10 16.09344 0 0
11:52 am 11:52 Partly Cloudy 84 29 61 16 45 45 S 10 17 30 1016 10 16.09344 0 0
12:52 pm 12:52 Mostly Cloudy 84 29 64 18 51 51 S 8 13 30 1016 10 16.09344 0 0
1:52 pm 13:52 Sunny 88 31 64 18 46 46 S 10 17 30 1016 10 16.09344 0 0
2:52 pm 14:52 Mostly Cloudy 86 30 64 18 49 49 S 10 17 30 1016 10 16.09344 0 0
3:52 pm 15:52 Mostly Cloudy 88 31 64 18 46 46 S 12 19 29.97 1015 10 16.09344 0 0
4:52 pm 16:52 Mostly Cloudy 88 31 64 18 46 46 SSE 10 17 29.97 1015 10 16.09344 0 0
5:52 pm 17:52 Mostly Cloudy 86 30 64 18 49 49 S 10 17 29.97 1015 10 16.09344 0 0
6:52 pm 18:52 Mostly Cloudy 84 29 64 18 51 51 S 10 17 29.97 1015 10 16.09344 0 0
7:52 pm 19:52 Mostly Cloudy 84 29 66 19 55 55 S 12 19 29.97 1015 10 16.09344 0 0
8:52 pm 20:52 Cloudy 82 28 64 18 55 55 S 10 17 30 1016 10 16.09344 0 0
9:52 pm 21:52 Cloudy 81 27 66 19 62 62 S 10 17 30 1016 10 16.09344 0 0
10:52 pm 22:52 Cloudy 81 27 66 19 62 62 S 9 15 30 1016 10 16.09344 0 0
11:52 pm 23:52 Cloudy 81 27 66 19 62 62 S 12 19 30 1016 10 16.09344 0 0

Powered by AerisWeather